Lawson Army Air Field (Fort Benning)
KLSF : now visible

Airfield :











YOU CAN JOIN US ON...

 
LOGIN :

Register | Disclaimer

   EN    FR    IT 

 









Legend :    VFR   Marginal VFR   IFR   Intensive IFR   Very Intensive IFR
Visi :
Ceiling :
>= 8 km
>= 3000ft
5 to 8 km
1000 to 3000 ft
1500m to 5 km
500 to 1000 ft
800 to 1500m
200 to 500 ft
< 800m
< 200 ft
Symbols :   Thunderstorms  Fog  Heavy snow  Heavy precipitations  Wind > 20 kt






- Airport Elevation : 232 ft


KLSF - Lawson Army Air Field (Fort Benning)

CURRENT METAR :
  • 101916Z AUTO 19003KT 10SM SCT017 BKN220 21/16 A2972 RMK AO2 SLP068 $

EXPIRED METARs :
  • 101901Z AUTO 19004KT 10SM BKN015 BKN210 20/16 A2973 RMK AO2 CIG 014V210 BKN015 V SCT SLP072 $
  • 101846Z AUTO 16007KT 10SM BKN012 BKN018 20/17 A2972 RMK AO2 SLP068 $
  • 101806Z AUTO 23005KT 10SM OVC008 18/17 A2973 RMK AO2 SLP072 $
  • 101756Z AUTO 23006KT 10SM OVC007 18/17 A2973 RMK AO2 RAE37DZB37E46 SLP072 P0002 60110 T01770167 10178 20162 55018 $
  • 101746Z AUTO 22007KT 10SM OVC006 18/17 A2973 RMK AO2 RAE37DZB37E46 SLP072 $
  • 101736Z AUTO 23005KT 10SM -RA OVC006 18/17 A2972 RMK AO2 PRESRR SLP068 $
  • 101716Z AUTO 13008KT 10SM -RA OVC005 18/17 A2967 RMK AO2 PRESFR SLP051 $
  • 101656Z AUTO 14008KT 10SM -RA SCT006 OVC043 17/17 A2969 RMK AO2 SLP058 P0003 T01730165 $

TAF AMD TAF KLSF
Valid from the 10 at 01:00 until the 11 at 03:00 UTC


100150Z 1001/1103 15009KT 0800 FG SCT002 QNH2988INS
TEMPO 1002/1005 2200 BR BKN015
BECMG 1004/1005 VRB06KT 6000 BR OVC005 QNH2984INS
BECMG 1013/1014 20010G15KT 8000 -SHRA VCTS SCT008CB OVC015 QNH2980INS
TEMPO 1015/1020 22020G30KT 3200 TSRA OVC008CB
BECMG 1020/1021 VRB06KT 6000 -DZ BKN010 QNH2980INS
BECMG 1102/1103 VRB06KT 4800 BR OVC005 QNH2982INS TX20/1020Z TN15/1009Z LAST NO AMDS AFT 1002 NEXT 1213
KZTL FIR / North America



MET'MAP, your aeronautical weather chart ! - Copyright ORBIFLY December 2007 - Disclaimer

ORBIFLY MET'MAP TEAM :

Programming & Development : Alexandra Zaïnal
Concept & original design : Baudouin d'Aumeries
Assistance for programming : Marc-Olivier Méhu
Technical & hardware support : Manuel Goepfert

Contact : metmap@orbifly.com




SOURCES & CREDITS :

   NOAA       Earth
Advisory